Time;durP1;ratioP1;P1;durP2;ratioP2;P2;SDS_P1;SDS_P2;PMS_P1;PMS_P2;Temp;Humidity;BMP_temperature;BMP_pressure;BME280_temperature;BME280_humidity;BME280_pressure;Samples;Min_cycle;Max_cycle;Signal;HPM_P1;HPM_P2
2023/02/10 00:01:12;;;;;;;19.45;14.13;;;-1.30;99.90;;;;;;5050828;28;20431;-77
2023/02/10 00:03:38;;;;;;;19.13;14.05;;;-1.00;99.90;;;;;;5050648;28;20409;-77
2023/02/10 00:06:05;;;;;;;20.70;15.23;;;-1.30;99.90;;;;;;5053982;28;20413;-78
2023/02/10 00:08:31;;;;;;;20.52;13.63;;;-1.40;99.90;;;;;;5050697;28;20456;-77
2023/02/10 00:11:02;;;;;;;19.52;13.57;;;-1.40;99.90;;;;;;5050377;28;20388;-77
2023/02/10 00:13:29;;;;;;;17.95;13.73;;;-1.50;99.90;;;;;;5050343;28;20488;-78
2023/02/10 00:15:57;;;;;;;19.40;14.00;;;-1.50;99.90;;;;;;5050217;28;20476;-78
2023/02/10 00:18:23;;;;;;;16.00;13.40;;;-1.00;99.90;;;;;;5050471;28;20393;-77
2023/02/10 00:20:49;;;;;;;17.80;13.03;;;-1.00;99.90;;;;;;5060157;28;20501;-78
2023/02/10 00:23:14;;;;;;;17.70;12.27;;;-1.50;99.90;;;;;;5050183;28;20895;-78
2023/02/10 00:25:40;;;;;;;20.87;13.10;;;-1.50;99.90;;;;;;5049950;28;21084;-78
2023/02/10 00:28:06;;;;;;;18.70;12.97;;;-1.50;99.90;;;;;;5050110;28;20461;-79
2023/02/10 00:30:32;;;;;;;16.90;12.73;;;-1.60;99.90;;;;;;5050316;28;20469;-77
2023/02/10 00:32:58;;;;;;;17.33;12.80;;;-1.60;99.90;;;;;;5050259;28;20472;-78
2023/02/10 00:35:23;;;;;;;17.77;13.50;;;-1.30;99.90;;;;;;5053249;28;20384;-78
2023/02/10 00:37:49;;;;;;;18.87;13.50;;;-1.70;99.90;;;;;;5052739;28;20393;-78
2023/02/10 00:40:15;;;;;;;19.40;13.50;;;-1.60;99.90;;;;;;5050068;28;20384;-77
2023/02/10 00:42:41;;;;;;;18.38;12.98;;;-1.60;99.90;;;;;;5050372;28;20389;-78
2023/02/10 00:45:07;;;;;;;17.80;13.03;;;-1.70;99.90;;;;;;5049971;28;20408;-77
2023/02/10 00:47:33;;;;;;;15.95;12.50;;;-1.60;99.90;;;;;;5051197;28;20468;-77
2023/02/10 00:49:58;;;;;;;16.40;12.10;;;-1.60;99.90;;;;;;5069733;28;20478;-77
2023/02/10 00:52:24;;;;;;;18.00;12.70;;;;;;;;;;5070218;28;20867;-77
2023/02/10 00:54:49;;;;;;;16.92;12.65;;;-1.50;99.90;;;;;;5051833;28;20838;-77
2023/02/10 00:57:15;;;;;;;19.02;13.05;;;-1.70;99.90;;;;;;5069755;28;20905;-77
2023/02/10 00:59:41;;;;;;;17.48;13.07;;;-1.60;99.90;;;;;;5052025;28;20900;-77
2023/02/10 01:02:06;;;;;;;16.15;11.77;;;-1.80;99.90;;;;;;5066651;28;20448;-78
2023/02/10 01:04:32;;;;;;;15.30;11.03;;;-1.70;99.90;;;;;;5050869;28;20409;-77
2023/02/10 01:06:58;;;;;;;19.00;13.10;;;-1.60;99.90;;;;;;5056937;28;20392;-78
2023/02/10 01:09:23;;;;;;;13.40;10.90;;;-1.80;99.90;;;;;;5070355;28;20371;-79
2023/02/10 01:11:49;;;;;;;15.05;11.02;;;-1.80;99.90;;;;;;5072278;28;20433;-78
2023/02/10 01:14:15;;;;;;;15.93;12.10;;;-1.70;99.90;;;;;;5070769;28;20399;-78
2023/02/10 01:16:41;;;;;;;16.00;12.15;;;-1.10;99.90;;;;;;5069798;28;20466;-78
2023/02/10 01:19:06;;;;;;;13.57;11.00;;;;;;;;;;5063509;28;20396;-77
2023/02/10 01:21:32;;;;;;;20.50;12.52;;;-1.50;99.90;;;;;;5032338;28;20385;-78
2023/02/10 01:23:58;;;;;;;17.20;12.13;;;-1.50;99.90;;;;;;5049659;28;20469;-78
2023/02/10 01:26:24;;;;;;;15.67;11.60;;;-1.50;99.90;;;;;;5049532;28;20381;-78
2023/02/10 01:28:49;;;;;;;15.30;10.95;;;-0.90;99.90;;;;;;5031972;28;21053;-77
2023/02/10 01:31:18;;;;;;;18.23;12.30;;;-1.50;99.90;;;;;;5065047;28;20405;-77
2023/02/10 01:33:45;;;;;;;15.50;12.13;;;-1.60;99.90;;;;;;5051990;28;20433;-77
2023/02/10 01:36:13;;;;;;;16.45;11.63;;;-1.40;99.90;;;;;;5068850;28;20379;-78
2023/02/10 01:38:39;;;;;;;16.50;12.07;;;-1.50;99.90;;;;;;5049936;28;20396;-77
2023/02/10 01:41:05;;;;;;;15.63;11.67;;;-0.70;99.90;;;;;;5053273;28;20875;-77
2023/02/10 01:43:31;;;;;;;17.47;12.53;;;-1.30;99.90;;;;;;5053408;28;20449;-77
2023/02/10 01:45:57;;;;;;;17.73;10.88;;;;;;;;;;5053272;28;20377;-78
2023/02/10 01:48:25;;;;;;;13.88;10.80;;;-1.20;99.90;;;;;;5041990;28;20446;-78
2023/02/10 01:51:01;;;;;;;15.50;11.70;;;-1.00;99.90;;;;;;5073587;28;20462;-78
2023/02/10 01:53:28;;;;;;;15.95;10.82;;;-1.60;99.90;;;;;;5073801;28;20382;-78
2023/02/10 01:55:56;;;;;;;15.98;11.57;;;-1.70;99.90;;;;;;5072986;28;20408;-78
2023/02/10 01:58:26;;;;;;;14.63;11.00;;;-1.70;99.90;;;;;;5055134;28;20873;-78
2023/02/10 02:00:52;;;;;;;15.20;10.80;;;-1.50;99.90;;;;;;5073045;28;20510;-78
2023/02/10 02:03:17;;;;;;;12.70;10.13;;;-1.70;99.90;;;;;;5062335;28;20418;-78
2023/02/10 02:05:45;;;;;;;13.38;10.77;;;-1.70;99.90;;;;;;5062532;28;20759;-78
2023/02/10 02:08:16;;;;;;;16.40;11.43;;;-1.60;99.90;;;;;;5068136;28;20822;-78
2023/02/10 02:11:00;;;;;;;14.90;11.10;;;-1.60;99.90;;;;;;5072765;28;20399;-78
2023/02/10 02:13:46;;;;;;;15.30;10.52;;;-1.80;99.90;;;;;;5072788;28;20443;-78
2023/02/10 02:16:23;;;;;;;16.40;11.77;;;-1.70;99.90;;;;;;5072410;28;20390;-77
2023/02/10 02:19:00;;;;;;;16.13;11.85;;;-1.80;99.90;;;;;;5055017;28;20760;-78
2023/02/10 02:21:50;;;;;;;16.85;11.23;;;-2.00;99.90;;;;;;5066660;28;20397;-78
2023/02/10 02:24:29;;;;;;;17.55;12.18;;;-1.80;99.90;;;;;;5035623;28;20408;-78
2023/02/10 02:27:10;;;;;;;17.30;11.77;;;;;;;;;;5072000;28;20478;-78
2023/02/10 02:29:58;;;;;;;15.40;11.90;;;-1.80;99.90;;;;;;5072462;28;20459;-78
2023/02/10 02:32:45;;;;;;;15.93;11.98;;;-2.40;99.90;;;;;;5072514;28;20380;-78
2023/02/10 02:35:16;;;;;;;18.38;12.52;;;-1.90;99.90;;;;;;5070991;28;20411;-77
2023/02/10 02:37:45;;;;;;;17.05;13.10;;;-0.80;99.90;;;;;;5052165;28;20778;-78
2023/02/10 02:40:13;;;;;;;16.10;12.30;;;-1.80;99.90;;;;;;5034454;28;20389;-77
2023/02/10 02:42:38;;;;;;;16.42;13.23;;;-1.90;99.90;;;;;;5067688;28;20470;-78
2023/02/10 02:45:27;;;;;;;16.03;12.47;;;-2.00;99.90;;;;;;5051913;28;20501;-78
2023/02/10 02:48:13;;;;;;;18.10;13.43;;;-1.90;99.90;;;;;;5053070;28;20381;-78
2023/02/10 02:51:09;;;;;;;20.85;13.23;;;-1.70;99.90;;;;;;5035362;28;20394;-78
2023/02/10 02:53:45;;;;;;;17.92;12.25;;;-1.70;99.90;;;;;;5052086;28;20393;-77
2023/02/10 02:56:38;;;;;;;17.20;11.93;;;-1.60;99.90;;;;;;5061725;28;20457;-78
2023/02/10 02:59:25;;;;;;;18.00;12.48;;;-1.60;99.90;;;;;;5072096;28;20590;-77
2023/02/10 03:01:57;;;;;;;15.05;11.55;;;-1.70;99.90;;;;;;5071925;28;20375;-77
2023/02/10 03:04:26;;;;;;;16.45;11.85;;;-2.00;99.90;;;;;;5071800;28;20404;-78
2023/02/10 03:06:51;;;;;;;17.20;12.70;;;-1.40;99.90;;;;;;5041034;28;20392;-78
2023/02/10 03:09:17;;;;;;;16.65;11.95;;;-1.70;99.90;;;;;;5061348;28;20748;-78
2023/02/10 03:11:43;;;;;;;16.75;11.85;;;-1.70;99.90;;;;;;5071208;28;20388;-78
2023/02/10 03:14:08;;;;;;;17.00;13.03;;;-2.00;99.90;;;;;;5103110;22;20432;-73
2023/02/10 03:16:34;;;;;;;16.30;12.10;;;-1.90;99.90;;;;;;5091394;28;20381;-72
2023/02/10 03:18:59;;;;;;;19.27;13.33;;;-1.90;99.90;;;;;;5091869;28;20378;-72
2023/02/10 03:21:25;;;;;;;17.73;12.33;;;-1.70;99.90;;;;;;5091503;28;20742;-72
2023/02/10 03:23:51;;;;;;;17.67;12.70;;;-2.20;99.90;;;;;;5100190;28;20399;-73
2023/02/10 03:26:16;;;;;;;18.20;12.48;;;-2.30;99.90;;;;;;5111456;28;20399;-73
2023/02/10 03:28:42;;;;;;;18.13;12.37;;;-2.10;99.90;;;;;;5111516;28;20388;-73
2023/02/10 03:31:09;;;;;;;18.43;12.90;;;-2.30;99.90;;;;;;5111897;28;20750;-72
2023/02/10 03:33:35;;;;;;;16.70;12.20;;;-2.20;99.90;;;;;;5111788;28;20380;-73
2023/02/10 03:36:01;;;;;;;16.33;12.20;;;-2.20;99.90;;;;;;5111238;28;20377;-72
2023/02/10 03:38:27;;;;;;;18.30;13.13;;;-2.20;99.90;;;;;;5110311;28;20380;-72
2023/02/10 03:40:53;;;;;;;16.08;12.38;;;-2.20;99.90;;;;;;5111697;28;20376;-73
2023/02/10 03:43:19;;;;;;;18.33;12.93;;;;;;;;;;5110908;28;20959;-72
2023/02/10 03:45:45;;;;;;;16.27;13.10;;;-2.10;99.90;;;;;;5109723;28;20388;-72
2023/02/10 03:48:12;;;;;;;16.77;12.20;;;-2.10;99.90;;;;;;5111491;27;20376;-73
2023/02/10 03:50:38;;;;;;;19.57;13.60;;;-2.20;99.90;;;;;;5109567;28;20391;-73
2023/02/10 03:53:04;;;;;;;22.00;15.23;;;-2.10;99.90;;;;;;5111386;28;21034;-73
2023/02/10 03:55:31;;;;;;;20.30;14.15;;;-2.10;99.90;;;;;;5109914;28;20396;-72
2023/02/10 03:57:56;;;;;;;18.05;14.10;;;-2.10;99.90;;;;;;5111000;28;20858;-72
2023/02/10 04:00:22;;;;;;;19.50;14.33;;;-2.20;99.90;;;;;;5111403;28;20534;-73
2023/02/10 04:02:48;;;;;;;19.45;14.40;;;-2.20;99.90;;;;;;5110565;28;20415;-72
2023/02/10 04:05:14;;;;;;;20.27;14.85;;;-2.00;99.90;;;;;;5109765;28;20435;-72
2023/02/10 04:07:40;;;;;;;18.27;13.27;;;-1.80;99.90;;;;;;5091335;28;20439;-72
2023/02/10 04:10:06;;;;;;;19.65;14.10;;;-2.00;99.90;;;;;;5108060;28;20376;-72
2023/02/10 04:12:31;;;;;;;19.88;14.80;;;-1.80;99.90;;;;;;5110859;28;20377;-73
2023/02/10 04:14:57;;;;;;;20.25;14.68;;;-2.00;99.90;;;;;;5111025;28;20405;-72
2023/02/10 04:17:23;;;;;;;19.63;15.35;;;-1.70;99.90;;;;;;5109431;28;20380;-72
2023/02/10 04:19:49;;;;;;;19.63;14.35;;;;;;;;;;5111192;28;20384;-73
2023/02/10 04:22:14;;;;;;;21.80;14.10;;;-2.00;99.90;;;;;;5111082;28;20918;-72
2023/02/10 04:24:40;;;;;;;19.75;14.00;;;-2.00;99.90;;;;;;5109271;28;20502;-72
2023/02/10 04:27:06;;;;;;;23.10;15.83;;;;;;;;;;5110714;28;20423;-73
2023/02/10 04:29:33;;;;;;;20.33;14.80;;;-2.00;99.90;;;;;;5110719;28;20435;-73
2023/02/10 04:31:59;;;;;;;20.63;15.13;;;-2.00;99.90;;;;;;5111331;28;20386;-72
2023/02/10 04:34:24;;;;;;;21.33;14.37;;;-2.10;99.90;;;;;;5112032;28;20384;-73
2023/02/10 04:36:50;;;;;;;20.97;15.87;;;-0.50;99.90;;;;;;5111507;28;20834;-73
2023/02/10 04:39:15;;;;;;;22.77;14.97;;;-2.00;99.90;;;;;;5111430;28;20376;-72
2023/02/10 04:41:41;;;;;;;21.43;15.43;;;-2.10;99.90;;;;;;5110894;28;20422;-72
2023/02/10 04:44:06;;;;;;;21.00;15.10;;;-2.30;99.90;;;;;;5110904;28;20400;-73
2023/02/10 04:46:32;;;;;;;19.50;14.25;;;-2.30;99.90;;;;;;5110912;28;20369;-73
2023/02/10 04:48:58;;;;;;;18.15;14.00;;;;;;;;;;5111677;28;20372;-73
2023/02/10 04:51:23;;;;;;;21.20;14.68;;;-2.30;99.90;;;;;;5111796;28;20459;-73
2023/02/10 04:53:49;;;;;;;20.70;14.17;;;-2.30;99.90;;;;;;5111044;28;20411;-71
2023/02/10 04:56:15;;;;;;;21.38;16.13;;;-2.40;99.90;;;;;;5110554;28;20997;-72
2023/02/10 04:58:40;;;;;;;23.10;16.20;;;-2.40;99.90;;;;;;5110706;28;20456;-72
2023/02/10 05:01:06;;;;;;;21.63;16.00;;;-2.30;99.90;;;;;;5111069;28;20878;-71
2023/02/10 05:03:32;;;;;;;21.10;15.27;;;-2.50;99.90;;;;;;5110690;28;20735;-71
2023/02/10 05:05:58;;;;;;;24.40;17.48;;;-2.60;99.90;;;;;;5110459;28;20821;-71
2023/02/10 05:08:23;;;;;;;23.90;16.43;;;-2.20;99.90;;;;;;5110808;28;20438;-71
2023/02/10 05:10:50;;;;;;;20.60;16.00;;;-1.20;99.90;;;;;;5110739;28;20411;-72
2023/02/10 05:13:16;;;;;;;22.88;16.48;;;-2.30;99.90;;;;;;5109953;28;20400;-71
2023/02/10 05:15:42;;;;;;;23.90;16.70;;;-2.40;99.90;;;;;;5114439;28;20873;-72
2023/02/10 05:18:07;;;;;;;25.80;17.40;;;-2.50;99.90;;;;;;5114724;28;20419;-72
2023/02/10 05:20:33;;;;;;;23.33;15.63;;;-1.90;99.90;;;;;;5114802;28;20414;-72
2023/02/10 05:22:58;;;;;;;24.63;17.20;;;-2.20;99.90;;;;;;5114376;28;20384;-71
2023/02/10 05:25:24;;;;;;;24.10;16.37;;;-2.20;99.90;;;;;;5114139;28;20372;-73
2023/02/10 05:27:49;;;;;;;24.60;15.70;;;-2.10;99.90;;;;;;5113988;28;20392;-74
2023/02/10 05:30:15;;;;;;;21.30;16.15;;;-1.90;99.90;;;;;;5114060;28;20380;-73
2023/02/10 05:32:41;;;;;;;21.95;16.40;;;-2.20;99.90;;;;;;5112690;28;20954;-72
2023/02/10 05:35:07;;;;;;;24.27;17.00;;;-2.10;99.90;;;;;;5114211;27;20891;-73
2023/02/10 05:37:33;;;;;;;23.10;16.60;;;-2.00;99.90;;;;;;5112874;28;20861;-73
2023/02/10 05:39:58;;;;;;;24.50;17.20;;;-2.20;99.90;;;;;;5113869;28;20394;-72
2023/02/10 05:42:24;;;;;;;24.27;18.07;;;-2.10;99.90;;;;;;5114334;28;20384;-73
2023/02/10 05:44:50;;;;;;;26.33;18.45;;;-2.50;99.90;;;;;;5113855;28;20408;-72
2023/02/10 05:47:15;;;;;;;22.70;17.33;;;-2.50;99.90;;;;;;5093529;28;20378;-73
2023/02/10 05:49:41;;;;;;;27.40;18.38;;;-2.40;99.90;;;;;;5092404;28;20759;-72
2023/02/10 05:52:06;;;;;;;22.60;16.98;;;-2.50;99.90;;;;;;5101029;28;20384;-73
2023/02/10 05:54:32;;;;;;;25.43;18.50;;;-2.50;99.90;;;;;;5112535;28;20424;-73
2023/02/10 05:56:58;;;;;;;26.80;17.83;;;-2.50;99.90;;;;;;5113669;28;20399;-73
2023/02/10 05:59:23;;;;;;;25.27;17.65;;;-2.50;99.90;;;;;;5113713;28;20453;-73
2023/02/10 06:01:49;;;;;;;24.55;16.35;;;-2.30;99.90;;;;;;5113255;28;20392;-72
2023/02/10 06:04:15;;;;;;;26.95;17.63;;;-2.60;99.90;;;;;;5115119;28;20396;-73
2023/02/10 06:06:40;;;;;;;26.07;18.33;;;-2.50;99.90;;;;;;5101307;28;20390;-73
2023/02/10 06:09:06;;;;;;;25.83;18.10;;;-2.60;99.90;;;;;;5093465;28;20471;-73
2023/02/10 06:11:32;;;;;;;24.60;17.67;;;-2.80;99.90;;;;;;5098141;28;20377;-73
2023/02/10 06:13:57;;;;;;;25.80;17.00;;;-2.60;99.90;;;;;;5113318;28;20844;-72
2023/02/10 06:16:23;;;;;;;24.47;17.40;;;-2.60;99.90;;;;;;5113652;28;20788;-73
2023/02/10 06:18:48;;;;;;;24.93;16.77;;;-2.90;99.90;;;;;;5112704;28;20383;-73
2023/02/10 06:21:15;;;;;;;23.63;16.00;;;-2.70;99.90;;;;;;5113548;28;20388;-73
2023/02/10 06:23:41;;;;;;;26.67;18.30;;;-2.70;99.90;;;;;;5113126;28;20461;-73
2023/02/10 06:26:07;;;;;;;25.80;18.60;;;-2.10;99.90;;;;;;5112639;28;20912;-73
2023/02/10 06:28:32;;;;;;;27.40;18.80;;;-2.70;99.90;;;;;;5111851;28;20885;-73
2023/02/10 06:30:58;;;;;;;24.98;17.80;;;-2.50;99.90;;;;;;5113859;28;20376;-72
2023/02/10 06:33:23;;;;;;;26.77;18.50;;;-2.50;99.90;;;;;;5112438;28;20388;-72
2023/02/10 06:35:49;;;;;;;24.52;17.45;;;-2.10;99.90;;;;;;5112435;28;20399;-73
2023/02/10 06:38:15;;;;;;;23.70;17.20;;;-2.50;99.90;;;;;;5112236;28;20384;-72
2023/02/10 06:40:40;;;;;;;27.37;17.63;;;-2.90;99.90;;;;;;5112079;28;20409;-73
2023/02/10 06:43:06;;;;;;;26.80;18.30;;;-2.70;99.90;;;;;;5113057;28;20430;-73
2023/02/10 06:45:33;;;;;;;26.23;17.40;;;-2.50;99.90;;;;;;5112971;28;20429;-73
2023/02/10 06:47:59;;;;;;;25.10;17.80;;;;;;;;;;5112638;28;20972;-72
2023/02/10 06:50:24;;;;;;;26.80;18.40;;;-2.70;99.90;;;;;;5112813;28;20468;-71
2023/02/10 06:52:50;;;;;;;28.10;17.57;;;-2.60;99.90;;;;;;5112574;28;20413;-72
2023/02/10 06:55:15;;;;;;;27.95;18.27;;;-2.50;99.90;;;;;;5111293;28;20381;-73
2023/02/10 06:57:41;;;;;;;26.65;18.30;;;-2.40;99.90;;;;;;5111236;28;20387;-72
2023/02/10 07:00:10;;;;;;;26.58;18.63;;;-2.00;99.90;;;;;;5112538;28;20395;-71
2023/02/10 07:02:36;;;;;;;23.85;18.02;;;-2.50;99.90;;;;;;5112386;27;20478;-72
2023/02/10 07:05:04;;;;;;;30.70;20.38;;;-2.30;99.90;;;;;;5110716;28;20772;-73
2023/02/10 07:07:29;;;;;;;23.13;17.30;;;-2.00;99.90;;;;;;5112047;28;20456;-73
2023/02/10 07:09:55;;;;;;;26.02;18.95;;;-2.50;99.90;;;;;;5111173;28;20826;-73
2023/02/10 07:12:21;;;;;;;26.53;17.70;;;-2.70;99.90;;;;;;5111126;28;20377;-73
2023/02/10 07:14:46;;;;;;;26.27;16.40;;;-2.50;99.90;;;;;;5112037;28;20396;-73
2023/02/10 07:17:12;;;;;;;25.83;18.20;;;-2.50;99.90;;;;;;5112152;28;20412;-73
2023/02/10 07:19:37;;;;;;;25.80;18.40;;;-2.80;99.90;;;;;;5111833;28;20393;-72
2023/02/10 07:22:04;;;;;;;27.80;18.83;;;-2.40;99.90;;;;;;5112063;28;20391;-73
2023/02/10 07:24:30;;;;;;;25.42;18.25;;;-2.30;99.90;;;;;;5110643;28;20401;-73
2023/02/10 07:26:56;;;;;;;28.75;19.70;;;-2.00;99.90;;;;;;5111995;28;20380;-72
2023/02/10 07:29:21;;;;;;;27.13;18.80;;;-1.40;99.90;;;;;;5112109;28;20376;-73
2023/02/10 07:31:47;;;;;;;26.50;18.90;;;-1.90;99.90;;;;;;5112134;28;20380;-73
2023/02/10 07:34:12;;;;;;;28.33;19.20;;;-2.10;99.90;;;;;;5112192;28;20471;-73
2023/02/10 07:36:38;;;;;;;25.43;18.10;;;-2.00;99.90;;;;;;5110686;28;20434;-73
2023/02/10 07:39:03;;;;;;;29.17;19.80;;;-2.00;99.90;;;;;;5112337;28;20450;-73
2023/02/10 07:41:29;;;;;;;27.03;18.80;;;-2.20;99.90;;;;;;5110809;28;20380;-73
2023/02/10 07:43:54;;;;;;;26.37;18.83;;;-2.10;99.90;;;;;;5111780;28;20487;-73
2023/02/10 07:46:20;;;;;;;25.73;19.23;;;-1.30;99.90;;;;;;5110163;28;20372;-72
2023/02/10 07:48:45;;;;;;;26.83;19.37;;;-1.90;99.90;;;;;;5111864;28;20469;-73
2023/02/10 07:51:11;;;;;;;26.33;18.93;;;-1.80;99.90;;;;;;5112170;28;20807;-73
2023/02/10 07:53:37;;;;;;;31.00;19.17;;;-1.70;99.90;;;;;;5111765;28;20951;-73
2023/02/10 07:56:03;;;;;;;25.48;18.17;;;-1.60;99.90;;;;;;5110186;28;20959;-73
2023/02/10 07:58:29;;;;;;;25.92;18.98;;;-1.80;99.90;;;;;;5111530;28;20403;-72
2023/02/10 08:00:55;;;;;;;28.13;18.10;;;-1.50;99.90;;;;;;5111546;28;20418;-72
2023/02/10 08:03:21;;;;;;;29.27;20.35;;;-1.60;99.90;;;;;;5111364;28;20443;-72
2023/02/10 08:05:50;;;;;;;27.97;18.87;;;-1.40;99.90;;;;;;5110897;28;20793;-71
2023/02/10 08:08:15;;;;;;;28.85;20.20;;;-1.30;99.90;;;;;;5111396;28;20406;-72
2023/02/10 08:10:41;;;;;;;26.37;18.60;;;-1.40;99.90;;;;;;5107301;28;20461;-72
2023/02/10 08:13:07;;;;;;;26.33;19.58;;;-1.20;99.90;;;;;;5105549;28;20479;-72
2023/02/10 08:15:33;;;;;;;26.65;18.70;;;-1.40;99.90;;;;;;5102351;28;20396;-72
2023/02/10 08:18:00;;;;;;;26.77;19.30;;;-1.20;99.90;;;;;;5096175;28;20853;-73
2023/02/10 08:20:26;;;;;;;26.55;18.85;;;-0.60;99.90;;;;;;5090577;28;20464;-72
2023/02/10 08:22:56;;;;;;;28.08;20.20;;;-0.80;99.90;;;;;;5098590;28;20398;-72
2023/02/10 08:25:21;;;;;;;30.50;19.83;;;-1.00;99.90;;;;;;5110848;28;20411;-72
2023/02/10 08:27:47;;;;;;;28.73;20.13;;;-0.90;99.90;;;;;;5110995;28;20914;-72
2023/02/10 08:30:13;;;;;;;27.77;20.23;;;-0.80;99.90;;;;;;5110611;28;20395;-73
2023/02/10 08:32:38;;;;;;;25.75;19.33;;;-0.70;99.90;;;;;;5107639;28;20392;-72
2023/02/10 08:35:05;;;;;;;26.00;18.73;;;-0.50;99.90;;;;;;5106244;28;20392;-72
2023/02/10 08:37:31;;;;;;;25.30;18.23;;;-0.20;99.90;;;;;;5103845;28;20858;-72
2023/02/10 08:39:58;;;;;;;22.83;17.30;;;;;;;;;;5111148;28;20372;-72
2023/02/10 08:42:24;;;;;;;27.02;19.05;;;-0.30;99.90;;;;;;5108408;28;20403;-74
2023/02/10 08:44:49;;;;;;;22.83;17.00;;;-0.30;99.90;;;;;;5098414;28;20908;-73
2023/02/10 08:47:15;;;;;;;25.67;17.30;;;-0.10;99.90;;;;;;5109564;28;20387;-73
2023/02/10 08:49:42;;;;;;;23.58;17.67;;;0.50;99.90;;;;;;5117435;28;20376;-72
2023/02/10 08:52:07;;;;;;;22.52;17.17;;;0.10;99.90;;;;;;5109030;28;20377;-73
2023/02/10 08:54:33;;;;;;;23.80;16.85;;;0.00;99.90;;;;;;5117199;28;20455;-73
2023/02/10 08:56:58;;;;;;;24.50;17.80;;;0.10;99.90;;;;;;5117350;27;20388;-72
2023/02/10 08:59:24;;;;;;;26.10;17.97;;;;;;;;;;5117465;27;20379;-74
2023/02/10 09:01:50;;;;;;;24.88;18.35;;;0.20;99.90;;;;;;5117377;28;20395;-73
2023/02/10 09:04:17;;;;;;;22.95;17.92;;;0.40;99.90;;;;;;5113684;28;20483;-73
2023/02/10 09:06:43;;;;;;;25.23;17.30;;;0.40;99.90;;;;;;5108503;28;20376;-72
2023/02/10 09:09:10;;;;;;;24.27;17.70;;;0.40;99.90;;;;;;5108764;28;20428;-73
2023/02/10 09:11:36;;;;;;;24.20;17.20;;;0.60;99.90;;;;;;5117688;28;20379;-74
2023/02/10 09:14:02;;;;;;;23.58;17.92;;;0.60;99.90;;;;;;5117480;28;20388;-74
2023/02/10 09:16:29;;;;;;;24.98;18.45;;;0.70;99.90;;;;;;5116587;27;20408;-76
2023/02/10 09:18:55;;;;;;;22.77;16.70;;;0.80;99.90;;;;;;5117550;28;20452;-75
2023/02/10 09:21:20;;;;;;;21.13;15.80;;;0.90;99.90;;;;;;5117450;28;20380;-72
2023/02/10 09:23:46;;;;;;;22.00;15.73;;;1.00;99.90;;;;;;5117208;28;20491;-75
2023/02/10 09:26:11;;;;;;;20.90;15.90;;;1.20;99.90;;;;;;5117743;27;20398;-75
2023/02/10 09:28:37;;;;;;;19.10;15.40;;;1.30;99.90;;;;;;5117641;27;20790;-76
2023/02/10 09:31:08;;;;;;;18.43;14.93;;;1.40;99.90;;;;;;5117248;27;20384;-75
2023/02/10 09:33:34;;;;;;;20.17;15.23;;;1.50;99.90;;;;;;5117325;27;20376;-75
2023/02/10 09:36:05;;;;;;;20.35;15.98;;;1.60;99.90;;;;;;5115439;28;20423;-72
2023/02/10 09:38:33;;;;;;;20.35;14.30;;;1.70;99.90;;;;;;5118014;27;20452;-75
2023/02/10 09:41:09;;;;;;;19.08;14.25;;;1.80;99.90;;;;;;5116860;28;20440;-73
2023/02/10 09:44:00;;;;;;;21.42;14.57;;;2.00;99.90;;;;;;5117266;27;20440;-74
2023/02/10 09:46:30;;;;;;;20.37;14.53;;;2.10;99.90;;;;;;5116997;27;20509;-74
2023/02/10 09:48:56;;;;;;;18.80;14.52;;;2.20;99.90;;;;;;5117427;27;20416;-73
2023/02/10 09:52:03;;;;;;;17.10;13.95;;;2.20;99.90;;;;;;5109682;27;20809;-74
2023/02/10 09:54:32;;;;;;;19.73;14.40;;;1.90;99.90;;;;;;5107201;28;20423;-73
2023/02/10 09:57:03;;;;;;;20.00;14.63;;;2.30;99.90;;;;;;5116900;27;20877;-74
2023/02/10 09:59:31;;;;;;;19.60;15.00;;;2.50;99.90;;;;;;5114276;27;20396;-75
2023/02/10 10:02:03;;;;;;;22.17;16.27;;;2.50;99.90;;;;;;5112664;28;20473;-75
2023/02/10 10:04:30;;;;;;;21.98;17.45;;;2.70;99.90;;;;;;5106369;28;20467;-74
2023/02/10 10:07:23;;;;;;;21.92;16.20;;;2.90;99.90;;;;;;5100013;28;20386;-74
2023/02/10 10:10:15;;;;;;;29.10;18.80;;;2.80;99.90;;;;;;5092513;28;20404;-74
2023/02/10 10:12:43;;;;;;;32.58;22.13;;;2.90;99.90;;;;;;5078534;28;20381;-74
2023/02/10 10:15:17;;;;;;;33.75;23.60;;;3.10;99.90;;;;;;5107617;28;20403;-74
2023/02/10 10:18:09;;;;;;;33.03;24.45;;;3.30;99.90;;;;;;5113158;28;20388;-75
2023/02/10 10:20:41;;;;;;;30.00;23.83;;;3.20;99.90;;;;;;5113158;28;20487;-74
2023/02/10 10:23:18;;;;;;;30.15;24.40;;;3.40;99.90;;;;;;5111940;28;20475;-75
2023/02/10 10:25:57;;;;;;;31.50;24.33;;;3.40;99.60;;;;;;5113167;28;20416;-75
2023/02/10 10:28:47;;;;;;;36.88;25.27;;;3.90;99.90;;;;;;5112059;28;20404;-76
2023/02/10 10:31:16;;;;;;;33.53;23.80;;;3.50;99.90;;;;;;5113035;28;20409;-76
2023/02/10 10:33:50;;;;;;;34.27;25.77;;;3.80;99.90;;;;;;5113151;28;20379;-74
2023/02/10 10:36:20;;;;;;;39.53;25.42;;;3.90;99.90;;;;;;5112985;28;20367;-74
2023/02/10 10:38:51;;;;;;;39.50;27.27;;;3.80;99.90;;;;;;5111788;28;20727;-74
2023/02/10 10:41:17;;;;;;;33.90;25.58;;;3.70;99.90;;;;;;5112819;28;20381;-74
2023/02/10 10:43:52;;;;;;;36.40;27.30;;;4.00;99.90;;;;;;5113136;28;20909;-75
2023/02/10 10:46:26;;;;;;;39.15;26.52;;;3.70;99.90;;;;;;5112590;28;20391;-74
2023/02/10 10:48:52;;;;;;;38.10;26.15;;;4.00;99.90;;;;;;5111862;28;20778;-74
2023/02/10 10:51:17;;;;;;;34.85;25.27;;;4.10;99.90;;;;;;5112880;28;20388;-74
2023/02/10 10:53:48;;;;;;;34.27;25.83;;;4.20;99.80;;;;;;5113090;28;20372;-75
2023/02/10 10:56:20;;;;;;;35.42;25.45;;;4.00;97.90;;;;;;5093627;28;20400;-73
2023/02/10 10:58:46;;;;;;;34.58;25.33;;;4.10;99.90;;;;;;5092638;28;20427;-74
2023/02/10 11:01:14;;;;;;;38.30;26.80;;;4.40;96.80;;;;;;5092319;28;20751;-74
2023/02/10 11:03:40;;;;;;;33.85;25.95;;;4.40;95.80;;;;;;5092106;28;20410;-74
2023/02/10 11:06:10;;;;;;;33.63;23.97;;;4.90;99.90;;;;;;5098432;28;20386;-74
2023/02/10 11:08:52;;;;;;;32.97;24.13;;;4.50;94.10;;;;;;5112370;28;20388;-75
2023/02/10 11:11:18;;;;;;;33.33;24.77;;;4.60;94.20;;;;;;5111833;28;20393;-73
2023/02/10 11:13:55;;;;;;;34.23;23.83;;;4.60;97.70;;;;;;5112070;28;20396;-74
2023/02/10 11:16:21;;;;;;;32.65;23.83;;;4.60;94.00;;;;;;5110989;28;20388;-74
2023/02/10 11:19:00;;;;;;;30.77;23.10;;;4.60;93.30;;;;;;5112362;28;20504;-74
2023/02/10 11:21:37;;;;;;;32.10;23.30;;;4.60;92.60;;;;;;5112196;28;20800;-74
2023/02/10 11:24:03;;;;;;;32.25;23.13;;;5.00;92.00;;;;;;5112035;27;20487;-74
2023/02/10 11:26:29;;;;;;;35.95;25.38;;;4.90;95.90;;;;;;5111724;27;20873;-74
2023/02/10 11:28:55;;;;;;;30.80;23.07;;;5.10;90.70;;;;;;5112114;28;20861;-74
2023/02/10 11:31:21;;;;;;;32.22;23.88;;;5.60;90.40;;;;;;5111876;28;20416;-74
2023/02/10 11:33:57;;;;;;;29.97;23.80;;;6.30;85.50;;;;;;5110529;28;20392;-74
2023/02/10 11:36:37;;;;;;;29.90;22.57;;;6.30;79.20;;;;;;5110437;28;20384;-75
2023/02/10 11:39:22;;;;;;;31.90;22.70;;;7.30;63.10;;;;;;5111839;28;20475;-75
2023/02/10 11:41:48;;;;;;;30.17;23.60;;;6.50;60.30;;;;;;5111988;28;20884;-75
2023/02/10 11:44:25;;;;;;;29.35;22.60;;;7.60;57.30;;;;;;5111542;28;20413;-75
2023/02/10 11:47:16;;;;;;;28.45;23.73;;;7.70;66.40;;;;;;5110217;28;20403;-75
2023/02/10 11:49:45;;;;;;;29.83;23.65;;;7.30;53.90;;;;;;5108550;28;20938;-75
2023/02/10 11:52:12;;;;;;;29.20;23.48;;;8.00;55.30;;;;;;5111710;28;20792;-76
2023/02/10 11:54:38;;;;;;;29.00;24.60;;;7.40;58.10;;;;;;5111448;28;20384;-75
2023/02/10 12:00:07;;;;;;;27.23;23.50;;;7.70;51.90;;;;;;5111640;28;20872;-76
2023/02/10 12:02:55;;;;;;;32.55;24.40;;;9.80;40.80;;;;;;5111318;28;20377;-75
2023/02/10 12:05:51;;;;;;;29.85;24.27;;;9.40;40.30;;;;;;5109379;28;20416;-75
2023/02/10 12:08:26;;;;;;;28.80;23.63;;;9.80;37.10;;;;;;5090925;28;20382;-76
2023/02/10 12:11:00;;;;;;;29.85;24.30;;;8.70;39.10;;;;;;5090955;28;20370;-75
2023/02/10 12:13:46;;;;;;;30.00;24.13;;;8.40;40.90;;;;;;5090561;28;20389;-75
2023/02/10 12:16:30;;;;;;;29.10;23.53;;;9.40;38.80;;;;;;5090584;28;20432;-75
2023/02/10 12:19:02;;;;;;;25.47;22.30;;;9.00;40.00;;;;;;5102929;28;20428;-75
2023/02/10 12:21:39;;;;;;;26.92;22.27;;;8.60;48.60;;;;;;5109920;28;20448;-76
2023/02/10 12:24:15;;;;;;;24.52;21.20;;;8.80;38.70;;;;;;5108852;28;20461;-75
2023/02/10 12:26:57;;;;;;;27.13;23.33;;;8.50;39.90;;;;;;5109458;28;20428;-75
2023/02/10 12:29:29;;;;;;;27.17;22.87;;;8.60;38.10;;;;;;5111327;28;20923;-75
2023/02/10 12:32:32;;;;;;;27.85;22.63;;;9.40;39.40;;;;;;5110618;28;20381;-75
2023/02/10 12:35:16;;;;;;;26.77;22.95;;;8.70;46.10;;;;;;5110655;28;20999;-76
2023/02/10 12:38:11;;;;;;;27.48;23.33;;;10.20;39.10;;;;;;5110870;28;20384;-74
2023/02/10 12:40:43;;;;;;;27.55;21.50;;;9.50;34.00;;;;;;5109618;28;20420;-74
2023/02/10 12:43:29;;;;;;;26.92;22.75;;;8.70;43.20;;;;;;5110827;28;20897;-75
2023/02/10 12:46:19;;;;;;;27.35;22.90;;;9.00;42.30;;;;;;5109179;28;20388;-75